createdAt,value
2022-12-03T00:01:33.661Z,-1.41
2022-12-03T00:04:01.663Z,-1.30
2022-12-03T00:06:34.544Z,-1.43
2022-12-03T00:09:03.382Z,-1.61
2022-12-03T00:11:31.408Z,-1.45
2022-12-03T00:13:59.317Z,-1.40
2022-12-03T00:16:27.545Z,-1.75
2022-12-03T00:18:55.606Z,-1.55
2022-12-03T00:21:24.806Z,-1.42
2022-12-03T00:23:54.312Z,-1.36
2022-12-03T00:26:22.277Z,-1.33
2022-12-03T00:28:50.981Z,-1.27
2022-12-03T00:31:21.256Z,-1.59
2022-12-03T00:33:50.568Z,-1.63
2022-12-03T00:36:19.353Z,-1.65
2022-12-03T00:38:47.360Z,-1.51
2022-12-03T00:41:16.717Z,-1.36
2022-12-03T00:43:44.661Z,-1.19
2022-12-03T00:46:15.757Z,-1.15
2022-12-03T00:48:47.733Z,-1.43
2022-12-03T00:51:15.672Z,-1.51
2022-12-03T00:53:43.663Z,-1.42
2022-12-03T00:56:11.663Z,-1.46
2022-12-03T00:58:40.963Z,-1.48
2022-12-03T01:01:08.906Z,-1.49
2022-12-03T01:03:37.307Z,-1.52
2022-12-03T01:06:05.493Z,-1.36
2022-12-03T01:08:34.556Z,-1.45
2022-12-03T01:11:02.583Z,-1.40
2022-12-03T01:13:30.711Z,-1.45
2022-12-03T01:16:00.178Z,-1.49
2022-12-03T01:18:28.180Z,-1.40
2022-12-03T01:20:56.170Z,-1.32
2022-12-03T01:23:24.153Z,-1.61
2022-12-03T01:25:52.088Z,-1.68
2022-12-03T01:28:20.052Z,-1.62
2022-12-03T01:31:02.004Z,-1.69
2022-12-03T01:33:31.403Z,-1.61
2022-12-03T01:35:59.592Z,-1.40
2022-12-03T01:38:27.559Z,-1.54
2022-12-03T01:40:55.978Z,-1.40
2022-12-03T01:43:23.993Z,-1.27
2022-12-03T01:45:52.139Z,-1.30
2022-12-03T01:48:20.339Z,-1.31
2022-12-03T01:50:49.774Z,-1.54
2022-12-03T01:53:19.319Z,-1.55
2022-12-03T01:55:49.042Z,-1.54
2022-12-03T01:58:17.765Z,-1.49
2022-12-03T02:00:45.876Z,-1.60
2022-12-03T02:03:20.740Z,-1.55
2022-12-03T02:05:50.483Z,-1.52
2022-12-03T02:08:35.464Z,-1.49
2022-12-03T02:11:07.527Z,-1.62
2022-12-03T02:13:49.018Z,-1.51
2022-12-03T02:16:17.124Z,-1.67
2022-12-03T02:18:46.244Z,-1.77
2022-12-03T02:21:24.444Z,-1.64
2022-12-03T02:24:02.936Z,-1.53
2022-12-03T02:26:32.473Z,-1.61
2022-12-03T02:29:01.330Z,-1.58
2022-12-03T02:31:29.817Z,-1.48
2022-12-03T02:33:57.870Z,-1.51
2022-12-03T02:36:26.019Z,-1.76
2022-12-03T02:38:53.982Z,-1.65
2022-12-03T02:41:39.767Z,-1.66
2022-12-03T02:44:09.957Z,-1.60
2022-12-03T02:46:38.183Z,-1.50
2022-12-03T02:49:07.387Z,-1.47
2022-12-03T02:51:36.012Z,-1.20
2022-12-03T02:54:04.965Z,-1.48
2022-12-03T02:56:33.977Z,-1.33
2022-12-03T02:59:09.665Z,-1.41
2022-12-03T03:01:39.278Z,-1.25
2022-12-03T03:04:07.791Z,-1.40
2022-12-03T03:06:36.000Z,-1.63
2022-12-03T03:09:04.668Z,-1.52
2022-12-03T03:11:32.681Z,-1.54
2022-12-03T03:14:02.471Z,-1.35
2022-12-03T03:16:30.719Z,-1.36
2022-12-03T03:19:00.109Z,-1.48
2022-12-03T03:21:28.229Z,-1.39
2022-12-03T03:23:56.391Z,-1.47
2022-12-03T03:26:24.380Z,-1.35
2022-12-03T03:28:53.106Z,-1.33
2022-12-03T03:31:24.694Z,-1.53
2022-12-03T03:33:52.972Z,-1.44
2022-12-03T03:36:23.429Z,-1.35
2022-12-03T03:38:51.796Z,-1.72
2022-12-03T03:41:20.897Z,-1.45
2022-12-03T03:43:50.921Z,-1.71
2022-12-03T03:46:20.362Z,-1.74
2022-12-03T03:48:49.747Z,-1.59
2022-12-03T03:51:19.368Z,-1.47
2022-12-03T03:53:50.906Z,-1.42
2022-12-03T03:56:21.176Z,-1.51
2022-12-03T03:58:49.350Z,-1.64
2022-12-03T04:01:19.197Z,-1.59
2022-12-03T04:03:47.393Z,-1.78
2022-12-03T04:06:15.419Z,-1.50
2022-12-03T04:08:43.496Z,-1.58
2022-12-03T04:11:30.438Z,-1.49
2022-12-03T04:13:58.511Z,-1.51
2022-12-03T04:16:26.626Z,-1.55
2022-12-03T04:18:54.876Z,-1.43
2022-12-03T04:21:42.540Z,-1.43
2022-12-03T04:24:12.713Z,-1.21
2022-12-03T04:26:59.656Z,-1.25
2022-12-03T04:29:27.807Z,-1.44
2022-12-03T04:32:13.586Z,-1.44
2022-12-03T04:34:58.924Z,-1.39
2022-12-03T04:37:27.228Z,-1.47
2022-12-03T04:39:58.235Z,-1.32
2022-12-03T04:42:27.777Z,-1.44
2022-12-03T04:44:56.090Z,-1.43
2022-12-03T04:47:24.495Z,-1.52
2022-12-03T04:49:53.017Z,-1.65
2022-12-03T04:52:22.424Z,-1.44
2022-12-03T04:54:50.524Z,-1.39
2022-12-03T04:57:18.680Z,-1.32
2022-12-03T04:59:48.006Z,-1.32
2022-12-03T05:02:16.127Z,-1.23
2022-12-03T05:04:44.183Z,-1.45
2022-12-03T05:07:12.318Z,-1.60
2022-12-03T05:09:40.318Z,-1.17
2022-12-03T05:12:08.571Z,-1.30
2022-12-03T05:14:36.748Z,-1.56
2022-12-03T05:17:06.357Z,-1.66
2022-12-03T05:19:51.768Z,-1.62
2022-12-03T05:22:19.661Z,-1.69
2022-12-03T05:24:47.586Z,-1.61
2022-12-03T05:27:20.194Z,-1.59
2022-12-03T05:29:51.292Z,-1.71
2022-12-03T05:32:20.840Z,-1.61
2022-12-03T05:34:48.863Z,-1.63
2022-12-03T05:37:17.023Z,-1.80
2022-12-03T05:39:45.077Z,-1.76
2022-12-03T05:42:30.634Z,-1.79
2022-12-03T05:44:58.574Z,-1.66
2022-12-03T05:47:27.833Z,-1.79
2022-12-03T05:49:55.964Z,-1.81
2022-12-03T05:52:23.877Z,-1.79
2022-12-03T05:54:52.073Z,-1.69
2022-12-03T05:57:20.374Z,-1.72
2022-12-03T05:59:48.271Z,-1.75
2022-12-03T06:02:16.247Z,-1.81
2022-12-03T06:04:45.551Z,-1.79
2022-12-03T06:07:14.281Z,-1.82
2022-12-03T06:09:42.631Z,-1.77
2022-12-03T06:12:10.688Z,-1.85
2022-12-03T06:14:38.637Z,-1.85
2022-12-03T06:17:06.693Z,-1.97
2022-12-03T06:19:34.693Z,-1.91
2022-12-03T06:22:04.081Z,-2.02
2022-12-03T06:24:31.987Z,-2.01
2022-12-03T06:26:59.899Z,-1.94
2022-12-03T06:29:27.801Z,-1.96
2022-12-03T06:31:55.704Z,-1.96
2022-12-03T06:34:23.688Z,-1.82
2022-12-03T06:36:51.587Z,-1.87
2022-12-03T06:39:20.910Z,-1.88
2022-12-03T06:41:48.863Z,-2.03
2022-12-03T06:44:17.048Z,-1.93
2022-12-03T06:46:44.988Z,-2.01
2022-12-03T06:49:13.070Z,-2.11
2022-12-03T06:51:41.017Z,-2.12
2022-12-03T06:54:09.157Z,-2.16
2022-12-03T06:56:45.168Z,-2.06
2022-12-03T06:59:17.956Z,-1.97
2022-12-03T07:01:46.340Z,-1.85
2022-12-03T07:04:14.937Z,-2.08
2022-12-03T07:06:42.903Z,-2.08
2022-12-03T07:09:10.882Z,-1.88
2022-12-03T07:11:44.087Z,-2.09
2022-12-03T07:14:12.162Z,-2.21
2022-12-03T07:16:43.025Z,-2.10
2022-12-03T07:19:11.106Z,-2.07
2022-12-03T07:21:39.312Z,-2.19
2022-12-03T07:24:07.964Z,-2.06
2022-12-03T07:26:35.915Z,-2.07
2022-12-03T07:29:05.426Z,-1.99
2022-12-03T07:31:33.477Z,-2.09
2022-12-03T07:34:02.092Z,-2.11
2022-12-03T07:36:30.019Z,-2.14
2022-12-03T07:38:57.872Z,-2.25
2022-12-03T07:41:25.753Z,-2.29
2022-12-03T07:43:53.685Z,-2.22
2022-12-03T07:46:23.034Z,-2.16
2022-12-03T07:48:50.965Z,-2.11
2022-12-03T07:51:18.876Z,-2.25
2022-12-03T07:53:46.770Z,-2.28
2022-12-03T07:56:14.687Z,-2.24
2022-12-03T07:58:42.578Z,-2.18
2022-12-03T08:01:11.256Z,-2.26
2022-12-03T08:03:42.796Z,-2.22
2022-12-03T08:06:10.708Z,-2.25
2022-12-03T08:08:38.766Z,-1.98
2022-12-03T08:11:07.483Z,-1.70
2022-12-03T08:13:36.035Z,-1.92
2022-12-03T08:16:16.521Z,-1.94
2022-12-03T08:18:46.835Z,-2.06
2022-12-03T08:21:16.441Z,-1.94
2022-12-03T08:23:44.394Z,-2.09
2022-12-03T08:26:20.550Z,-1.85
2022-12-03T08:28:48.645Z,-1.92
2022-12-03T08:31:19.950Z,-2.03
2022-12-03T08:33:51.025Z,-1.99
2022-12-03T08:36:22.783Z,-2.25
2022-12-03T08:38:53.133Z,-2.02
2022-12-03T08:41:35.897Z,-2.33
2022-12-03T08:44:17.101Z,-1.92
2022-12-03T08:46:45.883Z,-1.80
2022-12-03T08:49:16.670Z,-1.90
2022-12-03T08:51:44.609Z,-1.83
2022-12-03T08:54:15.891Z,-1.84
2022-12-03T08:56:44.801Z,-1.79
2022-12-03T08:59:41.429Z,-1.77
2022-12-03T09:02:27.056Z,-1.87
2022-12-03T09:04:56.496Z,-1.83
2022-12-03T09:07:24.601Z,-1.89
2022-12-03T09:09:52.896Z,-1.81
2022-12-03T09:12:20.889Z,-1.81
2022-12-03T09:14:56.633Z,-1.99
2022-12-03T09:17:32.282Z,-1.98
2022-12-03T09:20:01.652Z,-2.08
2022-12-03T09:22:29.615Z,-1.92
2022-12-03T09:24:57.624Z,-1.85
2022-12-03T09:27:25.576Z,-1.66
2022-12-03T09:29:53.574Z,-1.59
2022-12-03T09:32:21.594Z,-1.56
2022-12-03T09:34:49.723Z,-1.53
2022-12-03T09:37:19.102Z,-1.64
2022-12-03T09:39:47.028Z,-1.52
2022-12-03T09:42:16.295Z,-1.49
2022-12-03T09:44:44.921Z,-1.59
2022-12-03T09:47:13.265Z,-1.49
2022-12-03T09:49:44.987Z,-1.73
2022-12-03T09:52:23.181Z,-1.61
2022-12-03T09:54:54.866Z,-1.77
2022-12-03T09:57:23.183Z,-1.78
2022-12-03T09:59:51.437Z,-1.67
2022-12-03T10:02:23.816Z,-1.64
2022-12-03T10:04:52.234Z,-1.66
2022-12-03T10:07:21.042Z,-1.75
2022-12-03T10:09:49.097Z,-1.56
2022-12-03T10:12:24.146Z,-1.61
2022-12-03T10:14:53.620Z,-1.53
2022-12-03T10:17:22.036Z,-1.44
2022-12-03T10:19:50.076Z,-1.66
2022-12-03T10:22:17.991Z,-1.15
2022-12-03T10:24:45.912Z,-1.23
2022-12-03T10:27:31.583Z,-1.54
2022-12-03T10:30:01.245Z,-1.43
2022-12-03T10:32:41.062Z,-1.41
2022-12-03T10:35:12.014Z,-1.42
2022-12-03T10:37:58.180Z,-1.47
2022-12-03T10:40:28.107Z,-1.56
2022-12-03T10:43:14.691Z,-1.32
2022-12-03T10:45:43.060Z,-1.40
2022-12-03T10:48:15.905Z,-1.09
2022-12-03T10:50:50.386Z,-1.23
2022-12-03T10:53:19.730Z,-1.30
2022-12-03T10:55:49.238Z,-1.36
2022-12-03T10:58:24.353Z,-1.42
2022-12-03T11:00:55.875Z,-1.44
2022-12-03T11:03:25.607Z,-1.32
2022-12-03T11:05:55.269Z,-1.16
2022-12-03T11:08:25.441Z,-1.14
2022-12-03T11:11:00.594Z,-1.21
2022-12-03T11:13:45.422Z,-1.17
2022-12-03T11:16:17.528Z,-1.21
2022-12-03T11:19:03.257Z,-1.32
2022-12-03T11:21:31.660Z,-1.25
2022-12-03T11:24:20.306Z,-1.33
2022-12-03T11:27:15.990Z,-1.37
2022-12-03T11:29:59.763Z,-1.30
2022-12-03T11:33:07.395Z,-1.31
2022-12-03T11:36:27.795Z,-1.17
2022-12-03T11:39:04.809Z,-1.21
2022-12-03T11:41:34.821Z,-1.18
2022-12-03T11:44:31.132Z,-1.08
2022-12-03T11:47:14.184Z,-1.17
2022-12-03T11:49:49.891Z,-0.97
2022-12-03T11:52:26.492Z,-1.02
2022-12-03T11:54:58.880Z,-0.97
2022-12-03T11:57:38.255Z,-1.02
2022-12-03T12:00:20.026Z,-1.13
2022-12-03T12:02:50.421Z,-1.13
2022-12-03T12:05:25.360Z,-1.16
2022-12-03T12:07:54.157Z,-1.18
2022-12-03T12:10:45.676Z,-0.84
2022-12-03T12:13:41.810Z,-0.91
2022-12-03T12:16:10.849Z,-0.88
2022-12-03T12:18:42.081Z,-0.96
2022-12-03T12:21:42.601Z,-0.87
2022-12-03T12:24:32.876Z,-0.74
2022-12-03T12:27:03.646Z,-0.83
2022-12-03T12:29:31.679Z,-0.95
2022-12-03T12:32:03.630Z,-0.88
2022-12-03T12:34:33.408Z,-1.18
2022-12-03T12:37:03.798Z,-1.13
2022-12-03T12:39:32.256Z,-1.08
2022-12-03T12:42:00.357Z,-0.99
2022-12-03T12:44:28.676Z,-0.98
2022-12-03T12:46:57.255Z,0.01
2022-12-03T12:49:26.901Z,-0.37
2022-12-03T12:51:56.265Z,-0.75
2022-12-03T12:54:24.321Z,-0.87
2022-12-03T12:56:53.134Z,-1.06
2022-12-03T12:59:23.144Z,-0.77
2022-12-03T13:01:51.742Z,-0.97
2022-12-03T13:04:24.917Z,-0.80
2022-12-03T13:06:54.946Z,-0.84
2022-12-03T13:09:26.445Z,-0.87
2022-12-03T13:11:57.025Z,-1.09
2022-12-03T13:14:26.503Z,-1.33
2022-12-03T13:16:57.016Z,-1.37
2022-12-03T13:19:26.734Z,-1.32
2022-12-03T13:21:57.080Z,-1.24
2022-12-03T13:24:37.430Z,-0.98
2022-12-03T13:27:22.930Z,-1.04
2022-12-03T13:29:55.566Z,-1.19
2022-12-03T13:32:29.181Z,-1.22
2022-12-03T13:35:06.902Z,-0.95
2022-12-03T13:37:35.261Z,-1.19
2022-12-03T13:40:19.513Z,-1.24
2022-12-03T13:42:48.199Z,-1.18
2022-12-03T13:45:38.511Z,-1.16
2022-12-03T13:48:20.924Z,-1.04
2022-12-03T13:50:48.998Z,-1.11
2022-12-03T13:53:22.277Z,-1.15
2022-12-03T13:56:01.834Z,-1.07
2022-12-03T13:58:29.816Z,-1.08
2022-12-03T14:00:57.783Z,-1.36
2022-12-03T14:03:25.782Z,-1.22
2022-12-03T14:05:53.825Z,-1.31
2022-12-03T14:08:21.829Z,-1.28
2022-12-03T14:10:54.296Z,-1.12
2022-12-03T14:13:26.733Z,-1.09
2022-12-03T14:15:54.618Z,-1.25
2022-12-03T14:18:22.575Z,-1.08
2022-12-03T14:20:50.482Z,-0.84
2022-12-03T14:23:18.504Z,-1.12
2022-12-03T14:25:46.460Z,-1.22
2022-12-03T14:28:15.861Z,-1.28
2022-12-03T14:30:43.798Z,-1.33
2022-12-03T14:33:11.787Z,-1.51
2022-12-03T14:35:39.758Z,-1.27
2022-12-03T14:38:07.751Z,-1.18
2022-12-03T14:40:38.335Z,-1.13
2022-12-03T14:43:07.963Z,-0.99
2022-12-03T14:45:37.488Z,-1.29
2022-12-03T14:48:05.694Z,-1.29
2022-12-03T14:50:33.634Z,-1.35
2022-12-03T14:53:01.692Z,-1.32
2022-12-03T14:55:29.666Z,-1.26
2022-12-03T14:57:57.542Z,-1.35
2022-12-03T15:00:25.631Z,-1.39
2022-12-03T15:02:55.080Z,-1.32
2022-12-03T15:05:28.181Z,-1.29
2022-12-03T15:07:57.392Z,-1.28
2022-12-03T15:10:25.406Z,-1.30
2022-12-03T15:12:53.365Z,-1.32
2022-12-03T15:15:21.333Z,-1.28
2022-12-03T15:17:49.362Z,-1.31
2022-12-03T15:20:20.982Z,-1.39
2022-12-03T15:22:48.948Z,-1.35
2022-12-03T15:25:24.128Z,-1.14
2022-12-03T15:27:52.400Z,-1.11
2022-12-03T15:30:21.345Z,-1.07
2022-12-03T15:32:49.386Z,-0.93
2022-12-03T15:35:18.675Z,-1.20
2022-12-03T15:37:48.276Z,-1.04
2022-12-03T15:40:16.475Z,-1.19
2022-12-03T15:42:44.525Z,-1.17
2022-12-03T15:45:15.280Z,-1.05
2022-12-03T15:47:43.772Z,-1.07
2022-12-03T15:50:12.993Z,-0.66
2022-12-03T15:52:41.250Z,-0.88
2022-12-03T15:55:11.333Z,-1.15
2022-12-03T15:57:39.324Z,-1.13
2022-12-03T16:00:09.727Z,-0.82
2022-12-03T16:02:40.539Z,-0.95
2022-12-03T16:05:13.000Z,-1.05
2022-12-03T16:07:41.827Z,-1.13
2022-12-03T16:10:13.602Z,-1.12
2022-12-03T16:12:41.550Z,-1.17
2022-12-03T16:15:10.333Z,-1.12
2022-12-03T16:17:38.435Z,-1.07
2022-12-03T16:20:07.694Z,-1.17
2022-12-03T16:22:35.777Z,-0.83
2022-12-03T16:25:05.126Z,-1.20
2022-12-03T16:27:34.592Z,-1.04
2022-12-03T16:30:04.711Z,-0.90
2022-12-03T16:32:32.883Z,-1.03
2022-12-03T16:35:00.843Z,-1.13
2022-12-03T16:37:28.851Z,-1.01
2022-12-03T16:39:57.055Z,-1.10
2022-12-03T16:42:28.302Z,-0.76
2022-12-03T16:45:22.976Z,-0.79
2022-12-03T16:47:51.382Z,-1.05
2022-12-03T16:50:27.361Z,-0.94
2022-12-03T16:52:57.314Z,-0.91
2022-12-03T16:55:25.469Z,-0.98
2022-12-03T16:57:53.506Z,-0.73
2022-12-03T17:00:23.047Z,-1.00
2022-12-03T17:02:51.070Z,-0.87
2022-12-03T17:05:19.134Z,-0.96
2022-12-03T17:07:47.190Z,-0.93
2022-12-03T17:10:15.329Z,-0.85
2022-12-03T17:13:08.175Z,-0.74
2022-12-03T17:15:33.475Z,-0.91
2022-12-03T17:18:03.432Z,-0.54
2022-12-03T17:20:31.721Z,-0.70
2022-12-03T17:22:59.860Z,-0.92
2022-12-03T17:25:28.569Z,-0.94
2022-12-03T17:27:56.582Z,-0.77
2022-12-03T17:30:24.602Z,-0.64
2022-12-03T17:32:53.973Z,-0.77
2022-12-03T17:35:21.941Z,-0.66
2022-12-03T17:37:49.907Z,-0.74
2022-12-03T17:40:18.561Z,-1.00
2022-12-03T17:42:47.365Z,-0.87
2022-12-03T17:45:15.484Z,-0.82
2022-12-03T17:47:43.461Z,-0.86
2022-12-03T17:50:13.421Z,-0.75
2022-12-03T17:52:41.486Z,-0.82
2022-12-03T17:55:13.920Z,-0.79
2022-12-03T17:57:45.959Z,-0.59
2022-12-03T18:00:14.664Z,-0.79
2022-12-03T18:02:43.178Z,-0.71
2022-12-03T18:05:14.530Z,-0.71
2022-12-03T18:07:42.548Z,-0.59
2022-12-03T18:10:12.392Z,-0.66
2022-12-03T18:12:40.352Z,-0.61
2022-12-03T18:15:10.102Z,-0.69
2022-12-03T18:17:38.095Z,-0.78
2022-12-03T18:20:07.741Z,-0.62
2022-12-03T18:22:37.598Z,-0.87
2022-12-03T18:25:06.658Z,-0.93
2022-12-03T18:27:34.929Z,-0.77
2022-12-03T18:30:02.986Z,-0.83
2022-12-03T18:32:31.199Z,-0.64
2022-12-03T18:34:59.376Z,-0.95
2022-12-03T18:37:29.053Z,-0.77
2022-12-03T18:39:59.121Z,-0.70
2022-12-03T18:42:27.638Z,-0.70
2022-12-03T18:44:57.356Z,-0.63
2022-12-03T18:47:27.851Z,-0.42
2022-12-03T18:49:58.096Z,-0.55
2022-12-03T18:52:26.342Z,-0.54
2022-12-03T18:54:55.265Z,-0.70
2022-12-03T18:57:24.671Z,-0.84
2022-12-03T18:59:53.384Z,-0.83
2022-12-03T19:05:11.009Z,-0.75
2022-12-03T19:07:39.485Z,-0.55
2022-12-03T19:10:09.295Z,-0.22
2022-12-03T19:12:39.519Z,-0.71
2022-12-03T19:15:08.879Z,-0.55
2022-12-03T19:17:39.327Z,-0.65
2022-12-03T19:20:09.086Z,-0.35
2022-12-03T19:22:37.564Z,-0.72
2022-12-03T19:25:06.391Z,-0.59
2022-12-03T19:27:34.414Z,-0.71
2022-12-03T19:30:03.800Z,-0.79
2022-12-03T19:32:31.899Z,-0.77
2022-12-03T19:35:01.030Z,-0.62
2022-12-03T19:37:29.016Z,-0.77
2022-12-03T19:39:57.792Z,-0.64
2022-12-03T19:42:26.884Z,-0.64
2022-12-03T19:44:54.927Z,-0.60
2022-12-03T19:47:24.738Z,-0.75
2022-12-03T19:49:54.245Z,-0.82
2022-12-03T19:52:22.517Z,-0.96
2022-12-03T19:54:50.500Z,-0.61
2022-12-03T19:57:23.218Z,-0.65
2022-12-03T19:59:52.100Z,-0.71
2022-12-03T20:02:20.507Z,-0.80
2022-12-03T20:04:50.106Z,-0.81
2022-12-03T20:07:18.154Z,-0.42
2022-12-03T20:09:46.185Z,-0.39
2022-12-03T20:12:14.275Z,-0.51
2022-12-03T20:14:42.331Z,-0.60
2022-12-03T20:17:10.367Z,-0.87
2022-12-03T20:19:38.602Z,-0.68
2022-12-03T20:22:08.099Z,-0.68
2022-12-03T20:24:36.126Z,-0.65
2022-12-03T20:27:04.178Z,-0.63
2022-12-03T20:29:32.302Z,-0.75
2022-12-03T20:32:01.124Z,-0.71
2022-12-03T20:34:29.270Z,-0.43
2022-12-03T20:36:57.380Z,-0.81
2022-12-03T20:39:27.985Z,-0.58
2022-12-03T20:41:55.966Z,-0.37
2022-12-03T20:44:24.189Z,-0.47
2022-12-03T20:46:52.284Z,-0.58
2022-12-03T20:49:20.395Z,-0.59
2022-12-03T20:51:50.937Z,-0.65
2022-12-03T20:54:19.085Z,-0.78
2022-12-03T20:56:48.549Z,-0.38
2022-12-03T20:59:18.355Z,-0.37
2022-12-03T21:01:46.630Z,-0.77
2022-12-03T21:04:16.033Z,-0.61
2022-12-03T21:06:44.073Z,-0.48
2022-12-03T21:09:13.780Z,-0.58
2022-12-03T21:11:42.434Z,-0.71
2022-12-03T21:14:12.386Z,-0.55
2022-12-03T21:19:30.960Z,-0.48
2022-12-03T21:21:59.334Z,-0.69
2022-12-03T21:24:27.641Z,-0.53
2022-12-03T21:26:55.602Z,-0.67
2022-12-03T21:29:25.316Z,-0.67
2022-12-03T21:31:53.359Z,-0.89
2022-12-03T21:34:21.763Z,-0.66
2022-12-03T21:36:49.888Z,-0.76
2022-12-03T21:39:18.725Z,-0.78
2022-12-03T21:42:33.353Z,-0.64
2022-12-03T21:44:36.173Z,-0.73
2022-12-03T21:47:12.136Z,-0.65
2022-12-03T21:49:42.365Z,-0.77
2022-12-03T21:52:10.864Z,-0.80
2022-12-03T21:54:38.950Z,-0.70
2022-12-03T21:57:07.079Z,-0.63
2022-12-03T21:59:36.396Z,-0.46
2022-12-03T22:02:06.830Z,-0.81
2022-12-03T22:04:34.965Z,-0.75
2022-12-03T22:07:03.842Z,-0.82
2022-12-03T22:09:32.636Z,-0.67
2022-12-03T22:12:01.232Z,-0.72
2022-12-03T22:14:29.464Z,-0.55
2022-12-03T22:16:59.252Z,-0.55
2022-12-03T22:19:27.650Z,-0.55
2022-12-03T22:21:55.607Z,-0.76
2022-12-03T22:24:24.146Z,-0.77
2022-12-03T22:26:54.576Z,-0.77
2022-12-03T22:29:22.643Z,-0.74
2022-12-03T22:31:53.434Z,-0.64
2022-12-03T22:34:23.062Z,-0.70
2022-12-03T22:36:51.207Z,-0.64
2022-12-03T22:39:19.451Z,-0.71
2022-12-03T22:41:47.557Z,-0.80
2022-12-03T22:44:17.525Z,-0.80
2022-12-03T22:46:45.716Z,-0.81
2022-12-03T22:49:14.054Z,-0.67
2022-12-03T22:52:13.604Z,-0.69
2022-12-03T22:54:41.594Z,-0.54
2022-12-03T22:57:09.770Z,-0.61
2022-12-03T22:59:37.881Z,-0.84
2022-12-03T23:02:06.476Z,-0.56
2022-12-03T23:04:34.587Z,-0.55
2022-12-03T23:07:02.715Z,-0.68
2022-12-03T23:09:32.146Z,-0.77
2022-12-03T23:12:00.106Z,-0.72
2022-12-03T23:14:28.047Z,-0.60
2022-12-03T23:16:56.217Z,-0.62
2022-12-03T23:19:24.350Z,-0.66
2022-12-03T23:21:52.289Z,-0.58
2022-12-03T23:24:22.066Z,-0.54
2022-12-03T23:26:51.637Z,-0.57
2022-12-03T23:29:19.733Z,-0.57
2022-12-03T23:31:47.986Z,-0.56
2022-12-03T23:34:16.090Z,-0.55
2022-12-03T23:36:44.203Z,-0.59
2022-12-03T23:39:12.170Z,-0.58
2022-12-03T23:41:40.180Z,-0.70
2022-12-03T23:44:10.030Z,-0.52
2022-12-03T23:46:40.357Z,-0.53
2022-12-03T23:49:10.569Z,-0.61
2022-12-03T23:51:39.608Z,-0.66
2022-12-03T23:54:07.973Z,-0.58
2022-12-03T23:56:39.428Z,-0.49
2022-12-03T23:59:11.534Z,-0.66
